PWSweather.com
Personal Weather Stations
Station Observations
KOHAVON11
Long Road Station, Avon, OH 44011

Long Road StationAvon, OH 44011

Lat: 41.437, Lon: -82.0477

Elevation: 686

Station Type: Davis Vantage Pro2

http://www.avon-weather.com

High Low Average
Temperature 75.8°F24.3°C 43.1°F6.2°C 60.5°F15.8°C
Dew Point 49.5°F9.7°C 37.6°F3.1°C 44.4°F6.9°C
Winds 26.0 mph 41.8 kmh Calm Calm 5.0 mph SSW8.0 kmh SSW
Wind Gusts 32.0 mph51.5 kmh -- 13.0 mph20.9 kmh
Humidity 83% 39% 58%
Pressure 29.96 in1014.6 mb 29.62 in1003.0 mb -
Precipitation 0.03 in0.8 mm - -
Hour Temp Dew Point Humidity Winds Wind Gusts Pressure Precip Precip Rate Daily Precip Total
12:00 AM 43.2°F6.2°C 37.7°F3.2°C 81% Calm Calm -- 29.96 in1014.6 mb 0.00 in0.0 mm 0.00 in0.0 mm 0.00 in0.0 mm
12:05 AM 43.2°F6.2°C 37.7°F3.2°C 81% Calm Calm -- 29.96 in1014.6 mb 0.00 in0.0 mm 0.00 in0.0 mm 0.00 in0.0 mm
12:10 AM 43.1°F6.2°C 37.6°F3.1°C 81% Calm Calm -- 29.96 in1014.6 mb 0.00 in0.0 mm 0.00 in0.0 mm 0.00 in0.0 mm
12:15 AM 43.1°F6.2°C 37.6°F3.1°C 81% Calm Calm -- 29.95 in1014.2 mb 0.00 in0.0 mm 0.00 in0.0 mm 0.00 in0.0 mm
12:20 AM 43.1°F6.2°C 37.6°F3.1°C 81% Calm Calm -- 29.95 in1014.2 mb 0.00 in0.0 mm 0.00 in0.0 mm 0.00 in0.0 mm
12:25 AM 43.2°F6.2°C 37.7°F3.2°C 81% Calm Calm -- 29.95 in1014.2 mb 0.00 in0.0 mm 0.00 in0.0 mm 0.00 in0.0 mm
12:30 AM 43.7°F6.5°C 38.5°F3.6°C 82% 2.0 mph S3.2 kmh S 4.0 mph6.4 kmh 29.95 in1014.2 mb 0.00 in0.0 mm 0.00 in0.0 mm 0.00 in0.0 mm
12:35 AM 44.5°F6.9°C 39.0°F3.9°C 81% 2.0 mph S3.2 kmh S 4.0 mph6.4 kmh 29.95 in1014.2 mb 0.00 in0.0 mm 0.00 in0.0 mm 0.00 in0.0 mm
12:40 AM 45.4°F7.4°C 39.2°F4.0°C 79% 4.0 mph S6.4 kmh S 5.0 mph8.0 kmh 29.95 in1014.2 mb 0.00 in0.0 mm 0.00 in0.0 mm 0.00 in0.0 mm
12:45 AM 46.2°F7.9°C 39.0°F3.9°C 76% 4.0 mph S6.4 kmh S 6.0 mph9.7 kmh 29.95 in1014.2 mb 0.00 in0.0 mm 0.00 in0.0 mm 0.00 in0.0 mm
12:50 AM 46.8°F8.2°C 38.8°F3.8°C 74% 2.0 mph S3.2 kmh S 6.0 mph9.7 kmh 29.95 in1014.2 mb 0.00 in0.0 mm 0.00 in0.0 mm 0.00 in0.0 mm
12:55 AM 47.3°F8.5°C 38.6°F3.7°C 72% 2.0 mph S3.2 kmh S 6.0 mph9.7 kmh 29.95 in1014.2 mb 0.00 in0.0 mm 0.00 in0.0 mm 0.00 in0.0 mm
01:00 AM 47.7°F8.7°C 38.2°F3.4°C 70% 1.0 mph SSW1.6 kmh SSW 6.0 mph9.7 kmh 29.94 in1013.9 mb 0.00 in0.0 mm 0.00 in0.0 mm 0.00 in0.0 mm
01:05 AM 48.1°F8.9°C 38.2°F3.4°C 69% Calm Calm 5.0 mph8.0 kmh 29.94 in1013.9 mb 0.00 in0.0 mm 0.00 in0.0 mm 0.00 in0.0 mm
01:10 AM 48.5°F9.2°C 38.2°F3.4°C 68% Calm Calm 6.0 mph9.7 kmh 29.94 in1013.9 mb 0.00 in0.0 mm 0.00 in0.0 mm 0.00 in0.0 mm
01:15 AM 48.9°F9.4°C 38.2°F3.4°C 67% Calm Calm 6.0 mph9.7 kmh 29.94 in1013.9 mb 0.00 in0.0 mm 0.00 in0.0 mm 0.00 in0.0 mm
01:20 AM 49.3°F9.6°C 38.2°F3.4°C 66% 4.0 mph SSW6.4 kmh SSW 7.0 mph11.3 kmh 29.94 in1013.9 mb 0.00 in0.0 mm 0.00 in0.0 mm 0.00 in0.0 mm
01:25 AM 49.7°F9.8°C 38.2°F3.4°C 65% 3.0 mph SSW4.8 kmh SSW 7.0 mph11.3 kmh 29.93 in1013.5 mb 0.00 in0.0 mm 0.00 in0.0 mm 0.00 in0.0 mm
01:30 AM 50.1°F10.1°C 38.2°F3.4°C 64% 2.0 mph SW3.2 kmh SW 9.0 mph14.5 kmh 29.93 in1013.5 mb 0.00 in0.0 mm 0.00 in0.0 mm 0.00 in0.0 mm
01:35 AM 50.5°F10.3°C 38.1°F3.4°C 63% 3.0 mph SSW4.8 kmh SSW 9.0 mph14.5 kmh 29.93 in1013.5 mb 0.00 in0.0 mm 0.00 in0.0 mm 0.00 in0.0 mm
01:40 AM 50.8°F10.4°C 38.4°F3.6°C 63% 3.0 mph SSW4.8 kmh SSW 9.0 mph14.5 kmh 29.93 in1013.5 mb 0.00 in0.0 mm 0.00 in0.0 mm 0.00 in0.0 mm
01:45 AM 51.1°F10.6°C 38.3°F3.5°C 62% 1.0 mph SSW1.6 kmh SSW 9.0 mph14.5 kmh 29.93 in1013.5 mb 0.00 in0.0 mm 0.00 in0.0 mm 0.00 in0.0 mm
01:50 AM 51.3°F10.7°C 38.5°F3.6°C 62% 1.0 mph SSW1.6 kmh SSW 9.0 mph14.5 kmh 29.93 in1013.5 mb 0.00 in0.0 mm 0.00 in0.0 mm 0.00 in0.0 mm
01:55 AM 51.6°F10.9°C 38.3°F3.5°C 61% Calm Calm 10.0 mph16.1 kmh 29.92 in1013.2 mb 0.00 in0.0 mm 0.00 in0.0 mm 0.00 in0.0 mm
02:00 AM 51.7°F10.9°C 38.4°F3.6°C 61% 2.0 mph SW3.2 kmh SW 10.0 mph16.1 kmh 29.92 in1013.2 mb 0.00 in0.0 mm 0.00 in0.0 mm 0.00 in0.0 mm
02:05 AM 51.9°F11.1°C 38.2°F3.4°C 60% 6.0 mph S9.7 kmh S 10.0 mph16.1 kmh 29.92 in1013.2 mb 0.00 in0.0 mm 0.00 in0.0 mm 0.00 in0.0 mm
02:10 AM 52.0°F11.1°C 38.2°F3.4°C 60% 3.0 mph S4.8 kmh S 10.0 mph16.1 kmh 29.92 in1013.2 mb 0.00 in0.0 mm 0.00 in0.0 mm 0.00 in0.0 mm
02:15 AM 52.0°F11.1°C 38.2°F3.4°C 60% 2.0 mph SW3.2 kmh SW 8.0 mph12.9 kmh 29.92 in1013.2 mb 0.00 in0.0 mm 0.00 in0.0 mm 0.00 in0.0 mm
02:20 AM 52.0°F11.1°C 38.2°F3.4°C 60% 2.0 mph SW3.2 kmh SW 8.0 mph12.9 kmh 29.92 in1013.2 mb 0.00 in0.0 mm 0.00 in0.0 mm 0.00 in0.0 mm
02:25 AM 52.0°F11.1°C 38.2°F3.4°C 60% 2.0 mph S3.2 kmh S 7.0 mph11.3 kmh 29.92 in1013.2 mb 0.00 in0.0 mm 0.00 in0.0 mm 0.00 in0.0 mm
02:30 AM 52.1°F11.2°C 38.3°F3.5°C 60% 2.0 mph S3.2 kmh S 7.0 mph11.3 kmh 29.92 in1013.2 mb 0.00 in0.0 mm 0.00 in0.0 mm 0.00 in0.0 mm
02:35 AM 52.0°F11.1°C 38.2°F3.4°C 60% 1.0 mph SW1.6 kmh SW 4.0 mph6.4 kmh 29.92 in1013.2 mb 0.00 in0.0 mm 0.00 in0.0 mm 0.00 in0.0 mm
02:40 AM 52.0°F11.1°C 38.2°F3.4°C 60% Calm Calm 4.0 mph6.4 kmh 29.92 in1013.2 mb 0.00 in0.0 mm 0.00 in0.0 mm 0.00 in0.0 mm
02:45 AM 52.0°F11.1°C 38.2°F3.4°C 60% Calm Calm -- 29.92 in1013.2 mb 0.00 in0.0 mm 0.00 in0.0 mm 0.00 in0.0 mm
02:50 AM 52.0°F11.1°C 38.2°F3.4°C 60% 2.0 mph SSW3.2 kmh SSW 5.0 mph8.0 kmh 29.92 in1013.2 mb 0.00 in0.0 mm 0.00 in0.0 mm 0.00 in0.0 mm
02:55 AM 52.0°F11.1°C 38.2°F3.4°C 60% 4.0 mph SSW6.4 kmh SSW 5.0 mph8.0 kmh 29.92 in1013.2 mb 0.00 in0.0 mm 0.00 in0.0 mm 0.00 in0.0 mm
03:00 AM 52.0°F11.1°C 38.2°F3.4°C 60% 2.0 mph SSW3.2 kmh SSW 5.0 mph8.0 kmh 29.92 in1013.2 mb 0.00 in0.0 mm 0.00 in0.0 mm 0.00 in0.0 mm
03:05 AM 52.0°F11.1°C 38.2°F3.4°C 60% Calm Calm 5.0 mph8.0 kmh 29.92 in1013.2 mb 0.00 in0.0 mm 0.00 in0.0 mm 0.00 in0.0 mm
03:10 AM 51.9°F11.1°C 38.2°F3.4°C 60% Calm Calm 5.0 mph8.0 kmh 29.92 in1013.2 mb 0.00 in0.0 mm 0.00 in0.0 mm 0.00 in0.0 mm
03:15 AM 51.8°F11.0°C 38.1°F3.4°C 60% 4.0 mph S6.4 kmh S 7.0 mph11.3 kmh 29.92 in1013.2 mb 0.00 in0.0 mm 0.00 in0.0 mm 0.00 in0.0 mm
03:20 AM 51.8°F11.0°C 38.5°F3.6°C 61% 6.0 mph SW9.7 kmh SW 11.0 mph17.7 kmh 29.92 in1013.2 mb 0.00 in0.0 mm 0.00 in0.0 mm 0.00 in0.0 mm
03:25 AM 51.8°F11.0°C 38.9°F3.8°C 62% Calm Calm 11.0 mph17.7 kmh 29.92 in1013.2 mb 0.00 in0.0 mm 0.00 in0.0 mm 0.00 in0.0 mm
03:30 AM 51.8°F11.0°C 39.3°F4.1°C 63% 4.0 mph SSW6.4 kmh SSW 11.0 mph17.7 kmh 29.92 in1013.2 mb 0.00 in0.0 mm 0.00 in0.0 mm 0.00 in0.0 mm
03:35 AM 51.7°F10.9°C 39.3°F4.1°C 63% 5.0 mph SW8.0 kmh SW 11.0 mph17.7 kmh 29.92 in1013.2 mb 0.00 in0.0 mm 0.00 in0.0 mm 0.00 in0.0 mm
03:40 AM 51.7°F10.9°C 39.3°F4.1°C 63% 8.0 mph SW12.9 kmh SW 11.0 mph17.7 kmh 29.92 in1013.2 mb 0.00 in0.0 mm 0.00 in0.0 mm 0.00 in0.0 mm
03:45 AM 51.7°F10.9°C 39.3°F4.1°C 63% 1.0 mph SW1.6 kmh SW 11.0 mph17.7 kmh 29.92 in1013.2 mb 0.00 in0.0 mm 0.00 in0.0 mm 0.00 in0.0 mm
03:50 AM 51.8°F11.0°C 40.2°F4.6°C 65% Calm Calm 11.0 mph17.7 kmh 29.92 in1013.2 mb 0.00 in0.0 mm 0.00 in0.0 mm 0.00 in0.0 mm
03:55 AM 51.6°F10.9°C 40.4°F4.7°C 66% 7.0 mph SSW11.3 kmh SSW 9.0 mph14.5 kmh 29.92 in1013.2 mb 0.00 in0.0 mm 0.00 in0.0 mm 0.00 in0.0 mm
04:00 AM 51.5°F10.8°C 40.7°F4.8°C 67% Calm Calm 9.0 mph14.5 kmh 29.92 in1013.2 mb 0.00 in0.0 mm 0.00 in0.0 mm 0.00 in0.0 mm
04:05 AM 51.3°F10.7°C 40.9°F4.9°C 68% 1.0 mph S1.6 kmh S 9.0 mph14.5 kmh 29.91 in1012.9 mb 0.00 in0.0 mm 0.00 in0.0 mm 0.01 in0.3 mm
04:10 AM 51.1°F10.6°C 41.1°F5.1°C 69% Calm Calm -- 29.91 in1012.9 mb 0.00 in0.0 mm 0.00 in0.0 mm 0.01 in0.3 mm
04:15 AM 50.9°F10.5°C 41.3°F5.2°C 70% Calm Calm -- 29.91 in1012.9 mb 0.00 in0.0 mm 0.00 in0.0 mm 0.01 in0.3 mm
04:20 AM 50.5°F10.3°C 41.7°F5.4°C 72% Calm Calm -- 29.90 in1012.5 mb 0.00 in0.0 mm 0.00 in0.0 mm 0.01 in0.3 mm
04:25 AM 50.0°F10.0°C 42.3°F5.7°C 75% Calm Calm -- 29.90 in1012.5 mb 0.00 in0.0 mm 0.00 in0.0 mm 0.01 in0.3 mm
04:30 AM 49.7°F9.8°C 42.7°F5.9°C 77% Calm Calm -- 29.90 in1012.5 mb 0.00 in0.0 mm 0.00 in0.0 mm 0.01 in0.3 mm
04:35 AM 49.4°F9.7°C 43.1°F6.2°C 79% Calm Calm -- 29.89 in1012.2 mb 0.00 in0.0 mm 0.00 in0.0 mm 0.01 in0.3 mm
04:40 AM 49.2°F9.6°C 42.9°F6.1°C 79% Calm Calm -- 29.90 in1012.5 mb 0.00 in0.0 mm 0.00 in0.0 mm 0.01 in0.3 mm
04:45 AM 49.1°F9.5°C 42.8°F6.0°C 79% Calm Calm -- 29.89 in1012.2 mb 0.00 in0.0 mm 0.00 in0.0 mm 0.01 in0.3 mm
04:50 AM 48.9°F9.4°C 42.9°F6.1°C 80% Calm Calm -- 29.90 in1012.5 mb 0.00 in0.0 mm 0.00 in0.0 mm 0.01 in0.3 mm
04:55 AM 48.8°F9.3°C 42.8°F6.0°C 80% Calm Calm -- 29.91 in1012.9 mb 0.00 in0.0 mm 0.00 in0.0 mm 0.01 in0.3 mm
05:00 AM 48.7°F9.3°C 42.7°F5.9°C 80% Calm Calm -- 29.91 in1012.9 mb 0.00 in0.0 mm 0.00 in0.0 mm 0.01 in0.3 mm
05:05 AM 48.5°F9.2°C 42.5°F5.8°C 80% 2.0 mph SSW3.2 kmh SSW 5.0 mph8.0 kmh 29.92 in1013.2 mb 0.00 in0.0 mm 0.00 in0.0 mm 0.01 in0.3 mm
05:10 AM 48.4°F9.1°C 42.8°F6.0°C 81% Calm Calm -- 29.93 in1013.5 mb 0.00 in0.0 mm 0.00 in0.0 mm 0.01 in0.3 mm
05:15 AM 48.4°F9.1°C 42.8°F6.0°C 81% Calm Calm 13.0 mph20.9 kmh 29.92 in1013.2 mb 0.00 in0.0 mm 0.00 in0.0 mm 0.02 in0.5 mm
05:20 AM 48.4°F9.1°C 43.1°F6.2°C 82% Calm Calm -- 29.91 in1012.9 mb 0.00 in0.0 mm 0.00 in0.0 mm 0.02 in0.5 mm
05:25 AM 48.6°F9.2°C 43.3°F6.3°C 82% 7.0 mph SSW11.3 kmh SSW 12.0 mph19.3 kmh 29.91 in1012.9 mb 0.00 in0.0 mm 0.00 in0.0 mm 0.02 in0.5 mm
05:30 AM 48.8°F9.3°C 43.5°F6.4°C 82% 6.0 mph S9.7 kmh S 12.0 mph19.3 kmh 29.91 in1012.9 mb 0.00 in0.0 mm 0.00 in0.0 mm 0.02 in0.5 mm
05:35 AM 48.9°F9.4°C 43.6°F6.4°C 82% 3.0 mph S4.8 kmh S 13.0 mph20.9 kmh 29.90 in1012.5 mb 0.00 in0.0 mm 0.00 in0.0 mm 0.03 in0.8 mm
05:40 AM 49.0°F9.4°C 43.4°F6.3°C 81% 2.0 mph S3.2 kmh S 13.0 mph20.9 kmh 29.90 in1012.5 mb 0.00 in0.0 mm 0.00 in0.0 mm 0.03 in0.8 mm
05:45 AM 49.1°F9.5°C 43.5°F6.4°C 81% Calm Calm -- 29.89 in1012.2 mb 0.00 in0.0 mm 0.00 in0.0 mm 0.03 in0.8 mm
05:50 AM 49.2°F9.6°C 43.6°F6.4°C 81% Calm Calm -- 29.89 in1012.2 mb 0.00 in0.0 mm 0.00 in0.0 mm 0.03 in0.8 mm
05:55 AM 49.2°F9.6°C 43.6°F6.4°C 81% Calm Calm -- 29.88 in1011.9 mb 0.00 in0.0 mm 0.00 in0.0 mm 0.03 in0.8 mm
06:00 AM 49.2°F9.6°C 43.6°F6.4°C 81% Calm Calm -- 29.88 in1011.9 mb 0.00 in0.0 mm 0.00 in0.0 mm 0.03 in0.8 mm
06:05 AM 49.1°F9.5°C 43.5°F6.4°C 81% Calm Calm 3.0 mph4.8 kmh 29.88 in1011.9 mb 0.00 in0.0 mm 0.00 in0.0 mm 0.03 in0.8 mm
06:10 AM 49.0°F9.4°C 43.7°F6.5°C 82% Calm Calm -- 29.89 in1012.2 mb 0.00 in0.0 mm 0.00 in0.0 mm 0.03 in0.8 mm
06:15 AM 48.8°F9.3°C 43.5°F6.4°C 82% Calm Calm -- 29.89 in1012.2 mb 0.00 in0.0 mm 0.00 in0.0 mm 0.03 in0.8 mm
06:20 AM 48.8°F9.3°C 43.5°F6.4°C 82% Calm Calm -- 29.88 in1011.9 mb 0.00 in0.0 mm 0.00 in0.0 mm 0.03 in0.8 mm
06:25 AM 48.7°F9.3°C 43.4°F6.3°C 82% Calm Calm -- 29.88 in1011.9 mb 0.00 in0.0 mm 0.00 in0.0 mm 0.03 in0.8 mm
06:30 AM 48.6°F9.2°C 43.3°F6.3°C 82% Calm Calm -- 29.87 in1011.5 mb 0.00 in0.0 mm 0.00 in0.0 mm 0.03 in0.8 mm
06:35 AM 48.6°F9.2°C 43.3°F6.3°C 82% 2.0 mph SE3.2 kmh SE 2.0 mph3.2 kmh 29.87 in1011.5 mb 0.00 in0.0 mm 0.00 in0.0 mm 0.03 in0.8 mm
06:40 AM 48.5°F9.2°C 43.5°F6.4°C 83% 5.0 mph SE8.0 kmh SE 7.0 mph11.3 kmh 29.86 in1011.2 mb 0.00 in0.0 mm 0.00 in0.0 mm 0.03 in0.8 mm
06:45 AM 48.5°F9.2°C 43.5°F6.4°C 83% Calm Calm 7.0 mph11.3 kmh 29.86 in1011.2 mb 0.00 in0.0 mm 0.00 in0.0 mm 0.03 in0.8 mm
06:50 AM 48.5°F9.2°C 43.5°F6.4°C 83% 1.0 mph S1.6 kmh S 7.0 mph11.3 kmh 29.86 in1011.2 mb 0.00 in0.0 mm 0.00 in0.0 mm 0.03 in0.8 mm
06:55 AM 48.5°F9.2°C 43.5°F6.4°C 83% 1.0 mph SSE1.6 kmh SSE 7.0 mph11.3 kmh 29.85 in1010.8 mb 0.00 in0.0 mm 0.00 in0.0 mm 0.03 in0.8 mm
07:00 AM 48.5°F9.2°C 43.5°F6.4°C 83% Calm Calm 8.0 mph12.9 kmh 29.85 in1010.8 mb 0.00 in0.0 mm 0.00 in0.0 mm 0.03 in0.8 mm
07:05 AM 48.5°F9.2°C 43.2°F6.2°C 82% Calm Calm 8.0 mph12.9 kmh 29.85 in1010.8 mb 0.00 in0.0 mm 0.00 in0.0 mm 0.03 in0.8 mm
07:10 AM 48.6°F9.2°C 43.3°F6.3°C 82% Calm Calm 4.0 mph6.4 kmh 29.84 in1010.5 mb 0.00 in0.0 mm 0.00 in0.0 mm 0.03 in0.8 mm
07:15 AM 48.6°F9.2°C 43.3°F6.3°C 82% Calm Calm 5.0 mph8.0 kmh 29.84 in1010.5 mb 0.00 in0.0 mm 0.00 in0.0 mm 0.03 in0.8 mm
07:20 AM 48.8°F9.3°C 43.2°F6.2°C 81% 5.0 mph S8.0 kmh S 6.0 mph9.7 kmh 29.83 in1010.2 mb 0.00 in0.0 mm 0.00 in0.0 mm 0.03 in0.8 mm
07:25 AM 48.9°F9.4°C 43.3°F6.3°C 81% 1.0 mph SSW1.6 kmh SSW 8.0 mph12.9 kmh 29.83 in1010.2 mb 0.00 in0.0 mm 0.00 in0.0 mm 0.03 in0.8 mm
07:30 AM 49.1°F9.5°C 43.5°F6.4°C 81% 4.0 mph SSE6.4 kmh SSE 8.0 mph12.9 kmh 29.83 in1010.2 mb 0.00 in0.0 mm 0.00 in0.0 mm 0.03 in0.8 mm
07:35 AM 49.4°F9.7°C 43.7°F6.5°C 81% Calm Calm 8.0 mph12.9 kmh 29.82 in1009.8 mb 0.00 in0.0 mm 0.00 in0.0 mm 0.03 in0.8 mm
07:40 AM 49.5°F9.7°C 43.5°F6.4°C 80% Calm Calm 8.0 mph12.9 kmh 29.82 in1009.8 mb 0.00 in0.0 mm 0.00 in0.0 mm 0.03 in0.8 mm
07:45 AM 49.6°F9.8°C 43.3°F6.3°C 79% 2.0 mph S3.2 kmh S 6.0 mph9.7 kmh 29.82 in1009.8 mb 0.00 in0.0 mm 0.00 in0.0 mm 0.03 in0.8 mm
07:50 AM 49.7°F9.8°C 43.0°F6.1°C 78% 4.0 mph SSW6.4 kmh SSW 8.0 mph12.9 kmh 29.82 in1009.8 mb 0.00 in0.0 mm 0.00 in0.0 mm 0.03 in0.8 mm
07:55 AM 50.0°F10.0°C 43.0°F6.1°C 77% 3.0 mph 4.8 kmh 18.0 mph29.0 kmh 29.82 in1009.8 mb 0.00 in0.0 mm 0.00 in0.0 mm 0.03 in0.8 mm
08:00 AM 50.3°F10.2°C 42.6°F5.9°C 75% Calm Calm 18.0 mph29.0 kmh 29.82 in1009.8 mb 0.00 in0.0 mm 0.00 in0.0 mm 0.03 in0.8 mm
08:05 AM 50.5°F10.3°C 42.4°F5.8°C 74% 3.0 mph S4.8 kmh S 18.0 mph29.0 kmh 29.82 in1009.8 mb 0.00 in0.0 mm 0.00 in0.0 mm 0.03 in0.8 mm
08:10 AM 50.8°F10.4°C 41.9°F5.5°C 72% 2.0 mph SW3.2 kmh SW 18.0 mph29.0 kmh 29.81 in1009.5 mb 0.00 in0.0 mm 0.00 in0.0 mm 0.03 in0.8 mm
08:15 AM 51.1°F10.6°C 42.6°F5.9°C 73% Calm Calm 17.0 mph27.4 kmh 29.81 in1009.5 mb 0.00 in0.0 mm 0.00 in0.0 mm 0.03 in0.8 mm
08:20 AM 51.4°F10.8°C 42.1°F5.6°C 71% 16.0 mph S25.7 kmh S 17.0 mph27.4 kmh 29.81 in1009.5 mb 0.00 in0.0 mm 0.00 in0.0 mm 0.03 in0.8 mm
08:25 AM 51.8°F11.0°C 42.2°F5.7°C 70% 8.0 mph S12.9 kmh S 17.0 mph27.4 kmh 29.80 in1009.1 mb 0.00 in0.0 mm 0.00 in0.0 mm 0.03 in0.8 mm
08:30 AM 52.1°F11.2°C 42.1°F5.6°C 69% 3.0 mph SSE4.8 kmh SSE 17.0 mph27.4 kmh 29.80 in1009.1 mb 0.00 in0.0 mm 0.00 in0.0 mm 0.03 in0.8 mm
08:35 AM 52.2°F11.2°C 41.8°F5.4°C 68% 12.0 mph SSW19.3 kmh SSW 17.0 mph27.4 kmh 29.80 in1009.1 mb 0.00 in0.0 mm 0.00 in0.0 mm 0.03 in0.8 mm
08:40 AM 52.4°F11.3°C 41.9°F5.5°C 68% 9.0 mph S14.5 kmh S 22.0 mph35.4 kmh 29.79 in1008.8 mb 0.00 in0.0 mm 0.00 in0.0 mm 0.03 in0.8 mm
08:45 AM 52.7°F11.5°C 41.8°F5.4°C 67% 12.0 mph S19.3 kmh S 22.0 mph35.4 kmh 29.79 in1008.8 mb 0.00 in0.0 mm 0.00 in0.0 mm 0.03 in0.8 mm
08:50 AM 52.8°F11.6°C 41.9°F5.5°C 67% 13.0 mph S20.9 kmh S 22.0 mph35.4 kmh 29.78 in1008.5 mb 0.00 in0.0 mm 0.00 in0.0 mm 0.03 in0.8 mm
08:55 AM 52.7°F11.5°C 42.2°F5.7°C 68% 15.0 mph S24.1 kmh S 22.0 mph35.4 kmh 29.78 in1008.5 mb 0.00 in0.0 mm 0.00 in0.0 mm 0.03 in0.8 mm
09:00 AM 52.8°F11.6°C 42.3°F5.7°C 68% 2.0 mph SSW3.2 kmh SSW 22.0 mph35.4 kmh 29.77 in1008.1 mb 0.00 in0.0 mm 0.00 in0.0 mm 0.03 in0.8 mm
09:05 AM 52.8°F11.6°C 42.3°F5.7°C 68% 8.0 mph S12.9 kmh S 22.0 mph35.4 kmh 29.77 in1008.1 mb 0.00 in0.0 mm 0.00 in0.0 mm 0.03 in0.8 mm
09:10 AM 52.9°F11.6°C 42.8°F6.0°C 69% 14.0 mph S22.5 kmh S 22.0 mph35.4 kmh 29.77 in1008.1 mb 0.00 in0.0 mm 0.00 in0.0 mm 0.03 in0.8 mm
09:15 AM 53.2°F11.8°C 42.7°F5.9°C 68% 4.0 mph ESE6.4 kmh ESE 20.0 mph32.2 kmh 29.77 in1008.1 mb 0.00 in0.0 mm 0.00 in0.0 mm 0.03 in0.8 mm
09:20 AM 53.4°F11.9°C 42.9°F6.1°C 68% 13.0 mph S20.9 kmh S 24.0 mph38.6 kmh 29.77 in1008.1 mb 0.00 in0.0 mm 0.00 in0.0 mm 0.03 in0.8 mm
09:25 AM 53.4°F11.9°C 42.9°F6.1°C 68% 6.0 mph S9.7 kmh S 24.0 mph38.6 kmh 29.77 in1008.1 mb 0.00 in0.0 mm 0.00 in0.0 mm 0.03 in0.8 mm
09:30 AM 53.6°F12.0°C 42.7°F5.9°C 67% 5.0 mph S8.0 kmh S 24.0 mph38.6 kmh 29.76 in1007.8 mb 0.00 in0.0 mm 0.00 in0.0 mm 0.03 in0.8 mm
09:35 AM 54.2°F12.3°C 42.4°F5.8°C 65% 3.0 mph SSE4.8 kmh SSE 24.0 mph38.6 kmh 29.76 in1007.8 mb 0.00 in0.0 mm 0.00 in0.0 mm 0.03 in0.8 mm
09:40 AM 54.6°F12.6°C 42.8°F6.0°C 65% 12.0 mph S19.3 kmh S 18.0 mph29.0 kmh 29.76 in1007.8 mb 0.00 in0.0 mm 0.00 in0.0 mm 0.03 in0.8 mm
09:45 AM 54.9°F12.7°C 42.7°F5.9°C 64% 10.0 mph S16.1 kmh S 19.0 mph30.6 kmh 29.75 in1007.5 mb 0.00 in0.0 mm 0.00 in0.0 mm 0.03 in0.8 mm
09:50 AM 55.2°F12.9°C 43.0°F6.1°C 64% 11.0 mph S17.7 kmh S 19.0 mph30.6 kmh 29.75 in1007.5 mb 0.00 in0.0 mm 0.00 in0.0 mm 0.03 in0.8 mm
09:55 AM 56.1°F13.4°C 43.8°F6.6°C 64% 7.0 mph S11.3 kmh S 19.0 mph30.6 kmh 29.74 in1007.1 mb 0.00 in0.0 mm 0.00 in0.0 mm 0.03 in0.8 mm
10:00 AM 57.4°F14.1°C 43.8°F6.6°C 61% 14.0 mph SSW22.5 kmh SSW 21.0 mph33.8 kmh 29.73 in1006.8 mb 0.00 in0.0 mm 0.00 in0.0 mm 0.03 in0.8 mm
10:05 AM 58.0°F14.4°C 43.9°F6.6°C 60% 5.0 mph SSW8.0 kmh SSW 22.0 mph35.4 kmh 29.73 in1006.8 mb 0.00 in0.0 mm 0.00 in0.0 mm 0.03 in0.8 mm
10:10 AM 58.5°F14.7°C 43.9°F6.6°C 59% 17.0 mph S27.4 kmh S 22.0 mph35.4 kmh 29.73 in1006.8 mb 0.00 in0.0 mm 0.00 in0.0 mm 0.03 in0.8 mm
10:15 AM 58.7°F14.8°C 43.6°F6.4°C 58% 21.0 mph SSW33.8 kmh SSW 22.0 mph35.4 kmh 29.72 in1006.4 mb 0.00 in0.0 mm 0.00 in0.0 mm 0.03 in0.8 mm
10:20 AM 59.0°F15.0°C 43.4°F6.3°C 57% 22.0 mph S35.4 kmh S 25.0 mph40.2 kmh 29.72 in1006.4 mb 0.00 in0.0 mm 0.00 in0.0 mm 0.03 in0.8 mm
10:25 AM 59.7°F15.4°C 44.1°F6.7°C 57% 7.0 mph SW11.3 kmh SW 25.0 mph40.2 kmh 29.72 in1006.4 mb 0.00 in0.0 mm 0.00 in0.0 mm 0.03 in0.8 mm
10:30 AM 59.8°F15.4°C 43.2°F6.2°C 55% 15.0 mph S24.1 kmh S 25.0 mph40.2 kmh 29.72 in1006.4 mb 0.00 in0.0 mm 0.00 in0.0 mm 0.03 in0.8 mm
10:35 AM 60.1°F15.6°C 44.0°F6.7°C 56% 9.0 mph SW14.5 kmh SW 25.0 mph40.2 kmh 29.72 in1006.4 mb 0.00 in0.0 mm 0.00 in0.0 mm 0.03 in0.8 mm
10:40 AM 60.4°F15.8°C 43.7°F6.5°C 55% 9.0 mph SW14.5 kmh SW 21.0 mph33.8 kmh 29.71 in1006.1 mb 0.00 in0.0 mm 0.00 in0.0 mm 0.03 in0.8 mm
10:45 AM 60.7°F15.9°C 43.5°F6.4°C 54% 5.0 mph SSW8.0 kmh SSW 23.0 mph37.0 kmh 29.71 in1006.1 mb 0.00 in0.0 mm 0.00 in0.0 mm 0.03 in0.8 mm
10:50 AM 61.2°F16.2°C 44.0°F6.7°C 54% 10.0 mph SW16.1 kmh SW 23.0 mph37.0 kmh 29.71 in1006.1 mb 0.00 in0.0 mm 0.00 in0.0 mm 0.03 in0.8 mm
10:55 AM 62.0°F16.7°C 43.7°F6.5°C 52% 8.0 mph SW12.9 kmh SW 27.0 mph43.5 kmh 29.70 in1005.8 mb 0.00 in0.0 mm 0.00 in0.0 mm 0.03 in0.8 mm
11:00 AM 62.8°F17.1°C 43.9°F6.6°C 51% 7.0 mph SW11.3 kmh SW 30.0 mph48.3 kmh 29.70 in1005.8 mb 0.00 in0.0 mm 0.00 in0.0 mm 0.03 in0.8 mm
11:05 AM 63.0°F17.2°C 43.5°F6.4°C 50% 26.0 mph SSW41.8 kmh SSW 30.0 mph48.3 kmh 29.70 in1005.8 mb 0.00 in0.0 mm 0.00 in0.0 mm 0.03 in0.8 mm
11:10 AM 63.0°F17.2°C 43.5°F6.4°C 50% 11.0 mph SW17.7 kmh SW 32.0 mph51.5 kmh 29.69 in1005.4 mb 0.00 in0.0 mm 0.00 in0.0 mm 0.03 in0.8 mm
11:15 AM 63.6°F17.6°C 44.1°F6.7°C 50% 8.0 mph SW12.9 kmh SW 32.0 mph51.5 kmh 29.69 in1005.4 mb 0.00 in0.0 mm 0.00 in0.0 mm 0.03 in0.8 mm
11:20 AM 63.8°F17.7°C 44.3°F6.8°C 50% 6.0 mph SW9.7 kmh SW 32.0 mph51.5 kmh 29.68 in1005.1 mb 0.00 in0.0 mm 0.00 in0.0 mm 0.03 in0.8 mm
11:25 AM 64.0°F17.8°C 45.5°F7.5°C 52% 5.0 mph SW8.0 kmh SW 32.0 mph51.5 kmh 29.68 in1005.1 mb 0.00 in0.0 mm 0.00 in0.0 mm 0.03 in0.8 mm
11:30 AM 64.0°F17.8°C 45.0°F7.2°C 51% 7.0 mph SW11.3 kmh SW 19.0 mph30.6 kmh 29.68 in1005.1 mb 0.00 in0.0 mm 0.00 in0.0 mm 0.03 in0.8 mm
11:35 AM 64.1°F17.8°C 44.0°F6.7°C 49% 11.0 mph S17.7 kmh S 27.0 mph43.5 kmh 29.67 in1004.7 mb 0.00 in0.0 mm 0.00 in0.0 mm 0.03 in0.8 mm
11:40 AM 64.2°F17.9°C 44.1°F6.7°C 49% 8.0 mph SW12.9 kmh SW 29.0 mph46.7 kmh 29.67 in1004.7 mb 0.00 in0.0 mm 0.00 in0.0 mm 0.03 in0.8 mm
11:45 AM 64.8°F18.2°C 45.2°F7.3°C 50% 9.0 mph SW14.5 kmh SW 29.0 mph46.7 kmh 29.67 in1004.7 mb 0.00 in0.0 mm 0.00 in0.0 mm 0.03 in0.8 mm
11:50 AM 66.1°F18.9°C 46.4°F8.0°C 50% 9.0 mph SW14.5 kmh SW 29.0 mph46.7 kmh 29.66 in1004.4 mb 0.00 in0.0 mm 0.00 in0.0 mm 0.03 in0.8 mm
11:55 AM 67.3°F19.6°C 46.3°F7.9°C 48% 8.0 mph SW12.9 kmh SW 29.0 mph46.7 kmh 29.66 in1004.4 mb 0.00 in0.0 mm 0.00 in0.0 mm 0.03 in0.8 mm
12:00 PM 68.0°F20.0°C 46.4°F8.0°C 47% 11.0 mph SSW17.7 kmh SSW 23.0 mph37.0 kmh 29.65 in1004.1 mb 0.00 in0.0 mm 0.00 in0.0 mm 0.03 in0.8 mm
12:05 PM 68.4°F20.2°C 45.6°F7.6°C 45% 13.0 mph SSW20.9 kmh SSW 27.0 mph43.5 kmh 29.64 in1003.7 mb 0.00 in0.0 mm 0.00 in0.0 mm 0.03 in0.8 mm
12:10 PM 68.9°F20.5°C 46.6°F8.1°C 46% 10.0 mph SW16.1 kmh SW 30.0 mph48.3 kmh 29.64 in1003.7 mb 0.00 in0.0 mm 0.00 in0.0 mm 0.03 in0.8 mm
12:15 PM 69.5°F20.8°C 47.2°F8.4°C 46% 8.0 mph SW12.9 kmh SW 30.0 mph48.3 kmh 29.64 in1003.7 mb 0.00 in0.0 mm 0.00 in0.0 mm 0.03 in0.8 mm
12:20 PM 69.9°F21.1°C 46.9°F8.3°C 45% 21.0 mph S33.8 kmh S 30.0 mph48.3 kmh 29.63 in1003.4 mb 0.00 in0.0 mm 0.00 in0.0 mm 0.03 in0.8 mm
12:25 PM 70.2°F21.2°C 45.9°F7.7°C 43% 13.0 mph SW20.9 kmh SW 30.0 mph48.3 kmh 29.63 in1003.4 mb 0.00 in0.0 mm 0.00 in0.0 mm 0.03 in0.8 mm
12:30 PM 70.4°F21.3°C 46.1°F7.8°C 43% 11.0 mph SSW17.7 kmh SSW 26.0 mph41.8 kmh 29.63 in1003.4 mb 0.00 in0.0 mm 0.00 in0.0 mm 0.03 in0.8 mm
12:35 PM 70.6°F21.4°C 46.9°F8.3°C 44% 9.0 mph SSW14.5 kmh SSW 32.0 mph51.5 kmh 29.63 in1003.4 mb 0.00 in0.0 mm 0.00 in0.0 mm 0.03 in0.8 mm
12:40 PM 71.4°F21.9°C 47.0°F8.3°C 43% 20.0 mph S32.2 kmh S 32.0 mph51.5 kmh 29.63 in1003.4 mb 0.00 in0.0 mm 0.00 in0.0 mm 0.03 in0.8 mm
12:45 PM 71.9°F22.2°C 46.8°F8.2°C 42% 13.0 mph SW20.9 kmh SW 32.0 mph51.5 kmh 29.62 in1003.0 mb 0.00 in0.0 mm 0.00 in0.0 mm 0.03 in0.8 mm
12:50 PM 71.6°F22.0°C 46.5°F8.1°C 42% 12.0 mph S19.3 kmh S 32.0 mph51.5 kmh 29.63 in1003.4 mb 0.00 in0.0 mm 0.00 in0.0 mm 0.03 in0.8 mm
12:55 PM 72.2°F22.3°C 47.1°F8.4°C 42% 10.0 mph SW16.1 kmh SW 23.0 mph37.0 kmh 29.63 in1003.4 mb 0.00 in0.0 mm 0.00 in0.0 mm 0.03 in0.8 mm
01:00 PM 72.3°F22.4°C 46.5°F8.1°C 41% 10.0 mph WSW16.1 kmh WSW 23.0 mph37.0 kmh 29.63 in1003.4 mb 0.00 in0.0 mm 0.00 in0.0 mm 0.03 in0.8 mm
01:05 PM 72.1°F22.3°C 46.3°F7.9°C 41% 8.0 mph SW12.9 kmh SW 23.0 mph37.0 kmh 29.64 in1003.7 mb 0.00 in0.0 mm 0.00 in0.0 mm 0.03 in0.8 mm
01:10 PM 72.1°F22.3°C 46.3°F7.9°C 41% 7.0 mph SW11.3 kmh SW 24.0 mph38.6 kmh 29.64 in1003.7 mb 0.00 in0.0 mm 0.00 in0.0 mm 0.03 in0.8 mm
01:15 PM 71.7°F22.1°C 45.3°F7.4°C 40% 11.0 mph WSW17.7 kmh WSW 24.0 mph38.6 kmh 29.64 in1003.7 mb 0.00 in0.0 mm 0.00 in0.0 mm 0.03 in0.8 mm
01:20 PM 71.4°F21.9°C 45.7°F7.6°C 41% 16.0 mph SW25.7 kmh SW 24.0 mph38.6 kmh 29.64 in1003.7 mb 0.00 in0.0 mm 0.00 in0.0 mm 0.03 in0.8 mm
01:25 PM 71.5°F21.9°C 45.8°F7.7°C 41% 20.0 mph WSW32.2 kmh WSW 24.0 mph38.6 kmh 29.64 in1003.7 mb 0.00 in0.0 mm 0.00 in0.0 mm 0.03 in0.8 mm
01:30 PM 71.5°F21.9°C 46.4°F8.0°C 42% 8.0 mph SW12.9 kmh SW 24.0 mph38.6 kmh 29.64 in1003.7 mb 0.00 in0.0 mm 0.00 in0.0 mm 0.03 in0.8 mm
01:35 PM 72.2°F22.3°C 46.4°F8.0°C 41% 8.0 mph SW12.9 kmh SW 24.0 mph38.6 kmh 29.64 in1003.7 mb 0.00 in0.0 mm 0.00 in0.0 mm 0.03 in0.8 mm
01:40 PM 72.0°F22.2°C 46.9°F8.3°C 42% 6.0 mph SW9.7 kmh SW 22.0 mph35.4 kmh 29.64 in1003.7 mb 0.00 in0.0 mm 0.00 in0.0 mm 0.03 in0.8 mm
01:45 PM 72.1°F22.3°C 47.0°F8.3°C 42% 10.0 mph SW16.1 kmh SW 22.0 mph35.4 kmh 29.64 in1003.7 mb 0.00 in0.0 mm 0.00 in0.0 mm 0.03 in0.8 mm
01:50 PM 72.9°F22.7°C 47.0°F8.3°C 41% 11.0 mph SW17.7 kmh SW 21.0 mph33.8 kmh 29.64 in1003.7 mb 0.00 in0.0 mm 0.00 in0.0 mm 0.03 in0.8 mm
01:55 PM 73.1°F22.8°C 47.2°F8.4°C 41% 11.0 mph WSW17.7 kmh WSW 21.0 mph33.8 kmh 29.64 in1003.7 mb 0.00 in0.0 mm 0.00 in0.0 mm 0.03 in0.8 mm
02:00 PM 72.9°F22.7°C 47.0°F8.3°C 41% 9.0 mph SW14.5 kmh SW 20.0 mph32.2 kmh 29.64 in1003.7 mb 0.00 in0.0 mm 0.00 in0.0 mm 0.03 in0.8 mm
02:05 PM 73.3°F22.9°C 48.0°F8.9°C 42% 7.0 mph SW11.3 kmh SW 20.0 mph32.2 kmh 29.64 in1003.7 mb 0.00 in0.0 mm 0.00 in0.0 mm 0.03 in0.8 mm
02:10 PM 74.0°F23.3°C 48.0°F8.9°C 41% 19.0 mph WSW30.6 kmh WSW 20.0 mph32.2 kmh 29.64 in1003.7 mb 0.00 in0.0 mm 0.00 in0.0 mm 0.03 in0.8 mm
02:15 PM 74.5°F23.6°C 47.7°F8.7°C 40% 11.0 mph WNW17.7 kmh WNW 23.0 mph37.0 kmh 29.64 in1003.7 mb 0.00 in0.0 mm 0.00 in0.0 mm 0.03 in0.8 mm
02:20 PM 74.9°F23.8°C 47.4°F8.6°C 39% 15.0 mph WSW24.1 kmh WSW 27.0 mph43.5 kmh 29.64 in1003.7 mb 0.00 in0.0 mm 0.00 in0.0 mm 0.03 in0.8 mm
02:25 PM 74.6°F23.7°C 47.8°F8.8°C 40% 12.0 mph SW19.3 kmh SW 27.0 mph43.5 kmh 29.64 in1003.7 mb 0.00 in0.0 mm 0.00 in0.0 mm 0.03 in0.8 mm
02:30 PM 74.6°F23.7°C 47.8°F8.8°C 40% 12.0 mph SW19.3 kmh SW 27.0 mph43.5 kmh 29.64 in1003.7 mb 0.00 in0.0 mm 0.00 in0.0 mm 0.03 in0.8 mm
02:35 PM 74.8°F23.8°C 47.3°F8.5°C 39% 14.0 mph SW22.5 kmh SW 27.0 mph43.5 kmh 29.63 in1003.4 mb 0.00 in0.0 mm 0.00 in0.0 mm 0.03 in0.8 mm
02:40 PM 75.1°F23.9°C 48.3°F9.1°C 40% 16.0 mph SW25.7 kmh SW 25.0 mph40.2 kmh 29.63 in1003.4 mb 0.00 in0.0 mm 0.00 in0.0 mm 0.03 in0.8 mm
02:45 PM 75.5°F24.2°C 48.6°F9.2°C 40% 9.0 mph WSW14.5 kmh WSW 25.0 mph40.2 kmh 29.63 in1003.4 mb 0.00 in0.0 mm 0.00 in0.0 mm 0.03 in0.8 mm
02:50 PM 75.8°F24.3°C 48.2°F9.0°C 39% 15.0 mph SW24.1 kmh SW 22.0 mph35.4 kmh 29.62 in1003.0 mb 0.00 in0.0 mm 0.00 in0.0 mm 0.03 in0.8 mm
02:55 PM 75.5°F24.2°C 47.9°F8.8°C 39% 16.0 mph SW25.7 kmh SW 22.0 mph35.4 kmh 29.63 in1003.4 mb 0.00 in0.0 mm 0.00 in0.0 mm 0.03 in0.8 mm
03:00 PM 75.2°F24.0°C 47.7°F8.7°C 39% 7.0 mph SW11.3 kmh SW 21.0 mph33.8 kmh 29.63 in1003.4 mb 0.00 in0.0 mm 0.00 in0.0 mm 0.03 in0.8 mm
03:05 PM 74.9°F23.8°C 48.1°F8.9°C 40% 17.0 mph SW27.4 kmh SW 21.0 mph33.8 kmh 29.63 in1003.4 mb 0.00 in0.0 mm 0.00 in0.0 mm 0.03 in0.8 mm
03:10 PM 74.6°F23.7°C 47.8°F8.8°C 40% 12.0 mph WSW19.3 kmh WSW 24.0 mph38.6 kmh 29.62 in1003.0 mb 0.00 in0.0 mm 0.00 in0.0 mm 0.03 in0.8 mm
03:15 PM 74.7°F23.7°C 47.9°F8.8°C 40% 14.0 mph SW22.5 kmh SW 26.0 mph41.8 kmh 29.62 in1003.0 mb 0.00 in0.0 mm 0.00 in0.0 mm 0.03 in0.8 mm
03:20 PM 75.2°F24.0°C 48.4°F9.1°C 40% 22.0 mph WNW35.4 kmh WNW 26.0 mph41.8 kmh 29.63 in1003.4 mb 0.00 in0.0 mm 0.00 in0.0 mm 0.03 in0.8 mm
03:25 PM 75.0°F23.9°C 48.2°F9.0°C 40% 9.0 mph SW14.5 kmh SW 26.0 mph41.8 kmh 29.62 in1003.0 mb 0.00 in0.0 mm 0.00 in0.0 mm 0.03 in0.8 mm
03:30 PM 74.9°F23.8°C 48.8°F9.3°C 41% 8.0 mph SW12.9 kmh SW 28.0 mph45.1 kmh 29.62 in1003.0 mb 0.00 in0.0 mm 0.00 in0.0 mm 0.03 in0.8 mm
03:35 PM 75.1°F23.9°C 49.0°F9.4°C 41% 7.0 mph SW11.3 kmh SW 28.0 mph45.1 kmh 29.63 in1003.4 mb 0.00 in0.0 mm 0.00 in0.0 mm 0.03 in0.8 mm
03:40 PM 75.2°F24.0°C 49.1°F9.5°C 41% 11.0 mph WSW17.7 kmh WSW 28.0 mph45.1 kmh 29.63 in1003.4 mb 0.00 in0.0 mm 0.00 in0.0 mm 0.03 in0.8 mm
03:45 PM 75.2°F24.0°C 49.1°F9.5°C 41% 13.0 mph SW20.9 kmh SW 28.0 mph45.1 kmh 29.62 in1003.0 mb 0.00 in0.0 mm 0.00 in0.0 mm 0.03 in0.8 mm
03:50 PM 75.2°F24.0°C 48.4°F9.1°C 40% 13.0 mph WSW20.9 kmh WSW 31.0 mph49.9 kmh 29.62 in1003.0 mb 0.00 in0.0 mm 0.00 in0.0 mm 0.03 in0.8 mm
03:55 PM 75.3°F24.1°C 49.1°F9.5°C 41% 8.0 mph WSW12.9 kmh WSW 31.0 mph49.9 kmh 29.63 in1003.4 mb 0.00 in0.0 mm 0.00 in0.0 mm 0.03 in0.8 mm
04:00 PM 75.6°F24.2°C 48.7°F9.3°C 40% 13.0 mph SW20.9 kmh SW 31.0 mph49.9 kmh 29.63 in1003.4 mb 0.00 in0.0 mm 0.00 in0.0 mm 0.03 in0.8 mm
04:05 PM 75.4°F24.1°C 49.2°F9.6°C 41% 10.0 mph SW16.1 kmh SW 31.0 mph49.9 kmh 29.63 in1003.4 mb 0.00 in0.0 mm 0.00 in0.0 mm 0.03 in0.8 mm
04:10 PM 75.4°F24.1°C 48.5°F9.2°C 40% 9.0 mph SW14.5 kmh SW 27.0 mph43.5 kmh 29.64 in1003.7 mb 0.00 in0.0 mm 0.00 in0.0 mm 0.03 in0.8 mm
04:15 PM 75.3°F24.1°C 48.5°F9.2°C 40% 10.0 mph WSW16.1 kmh WSW 27.0 mph43.5 kmh 29.64 in1003.7 mb 0.00 in0.0 mm 0.00 in0.0 mm 0.03 in0.8 mm
04:20 PM 75.2°F24.0°C 49.1°F9.5°C 41% 13.0 mph SW20.9 kmh SW 27.0 mph43.5 kmh 29.64 in1003.7 mb 0.00 in0.0 mm 0.00 in0.0 mm 0.03 in0.8 mm
04:25 PM 75.0°F23.9°C 48.9°F9.4°C 41% 13.0 mph SW20.9 kmh SW 27.0 mph43.5 kmh 29.64 in1003.7 mb 0.00 in0.0 mm 0.00 in0.0 mm 0.03 in0.8 mm
04:30 PM 75.0°F23.9°C 48.9°F9.4°C 41% 6.0 mph WSW9.7 kmh WSW 23.0 mph37.0 kmh 29.64 in1003.7 mb 0.00 in0.0 mm 0.00 in0.0 mm 0.03 in0.8 mm
04:35 PM 74.9°F23.8°C 48.8°F9.3°C 41% 15.0 mph SW24.1 kmh SW 23.0 mph37.0 kmh 29.65 in1004.1 mb 0.00 in0.0 mm 0.00 in0.0 mm 0.03 in0.8 mm
04:40 PM 74.9°F23.8°C 48.8°F9.3°C 41% 18.0 mph SW29.0 kmh SW 22.0 mph35.4 kmh 29.65 in1004.1 mb 0.00 in0.0 mm 0.00 in0.0 mm 0.03 in0.8 mm
04:45 PM 74.9°F23.8°C 49.5°F9.7°C 42% 6.0 mph SW9.7 kmh SW 22.0 mph35.4 kmh 29.66 in1004.4 mb 0.00 in0.0 mm 0.00 in0.0 mm 0.03 in0.8 mm
04:50 PM 75.1°F23.9°C 49.0°F9.4°C 41% 12.0 mph WSW19.3 kmh WSW 22.0 mph35.4 kmh 29.65 in1004.1 mb 0.00 in0.0 mm 0.00 in0.0 mm 0.03 in0.8 mm
04:55 PM 75.0°F23.9°C 48.9°F9.4°C 41% 6.0 mph W9.7 kmh W 22.0 mph35.4 kmh 29.66 in1004.4 mb 0.00 in0.0 mm 0.00 in0.0 mm 0.03 in0.8 mm
05:00 PM 75.0°F23.9°C 48.9°F9.4°C 41% 8.0 mph WSW12.9 kmh WSW 19.0 mph30.6 kmh 29.66 in1004.4 mb 0.00 in0.0 mm 0.00 in0.0 mm 0.03 in0.8 mm
05:05 PM 75.1°F23.9°C 48.3°F9.1°C 40% 12.0 mph W19.3 kmh W 25.0 mph40.2 kmh 29.66 in1004.4 mb 0.00 in0.0 mm 0.00 in0.0 mm 0.03 in0.8 mm
05:10 PM 75.1°F23.9°C 49.0°F9.4°C 41% 12.0 mph WSW19.3 kmh WSW 25.0 mph40.2 kmh 29.66 in1004.4 mb 0.00 in0.0 mm 0.00 in0.0 mm 0.03 in0.8 mm
05:15 PM 75.0°F23.9°C 48.9°F9.4°C 41% 8.0 mph WSW12.9 kmh WSW 25.0 mph40.2 kmh 29.66 in1004.4 mb 0.00 in0.0 mm 0.00 in0.0 mm 0.03 in0.8 mm
05:20 PM 74.9°F23.8°C 48.8°F9.3°C 41% 7.0 mph WSW11.3 kmh WSW 25.0 mph40.2 kmh 29.66 in1004.4 mb 0.00 in0.0 mm 0.00 in0.0 mm 0.03 in0.8 mm
05:25 PM 74.9°F23.8°C 48.8°F9.3°C 41% 16.0 mph SW25.7 kmh SW 23.0 mph37.0 kmh 29.66 in1004.4 mb 0.00 in0.0 mm 0.00 in0.0 mm 0.03 in0.8 mm
05:30 PM 74.9°F23.8°C 48.8°F9.3°C 41% 10.0 mph WSW16.1 kmh WSW 23.0 mph37.0 kmh 29.66 in1004.4 mb 0.00 in0.0 mm 0.00 in0.0 mm 0.03 in0.8 mm
05:35 PM 74.9°F23.8°C 48.8°F9.3°C 41% 18.0 mph WSW29.0 kmh WSW 22.0 mph35.4 kmh 29.66 in1004.4 mb 0.00 in0.0 mm 0.00 in0.0 mm 0.03 in0.8 mm
05:40 PM 74.7°F23.7°C 49.3°F9.6°C 42% 7.0 mph WSW11.3 kmh WSW 22.0 mph35.4 kmh 29.67 in1004.7 mb 0.00 in0.0 mm 0.00 in0.0 mm 0.03 in0.8 mm
05:45 PM 74.6°F23.7°C 49.2°F9.6°C 42% 4.0 mph WSW6.4 kmh WSW 19.0 mph30.6 kmh 29.67 in1004.7 mb 0.00 in0.0 mm 0.00 in0.0 mm 0.03 in0.8 mm
05:50 PM 74.5°F23.6°C 49.1°F9.5°C 42% 7.0 mph W11.3 kmh W 19.0 mph30.6 kmh 29.67 in1004.7 mb 0.00 in0.0 mm 0.00 in0.0 mm 0.03 in0.8 mm
05:55 PM 74.5°F23.6°C 49.1°F9.5°C 42% 7.0 mph WSW11.3 kmh WSW 19.0 mph30.6 kmh 29.68 in1005.1 mb 0.00 in0.0 mm 0.00 in0.0 mm 0.03 in0.8 mm
06:00 PM 74.3°F23.5°C 48.9°F9.4°C 42% 4.0 mph W6.4 kmh W 19.0 mph30.6 kmh 29.68 in1005.1 mb 0.00 in0.0 mm 0.00 in0.0 mm 0.03 in0.8 mm
06:05 PM 74.2°F23.4°C 48.8°F9.3°C 42% 7.0 mph WSW11.3 kmh WSW 15.0 mph24.1 kmh 29.68 in1005.1 mb 0.00 in0.0 mm 0.00 in0.0 mm 0.03 in0.8 mm
06:10 PM 74.0°F23.3°C 48.7°F9.3°C 42% 5.0 mph W8.0 kmh W 15.0 mph24.1 kmh 29.68 in1005.1 mb 0.00 in0.0 mm 0.00 in0.0 mm 0.03 in0.8 mm
06:15 PM 73.7°F23.2°C 48.4°F9.1°C 42% 4.0 mph W6.4 kmh W 13.0 mph20.9 kmh 29.68 in1005.1 mb 0.00 in0.0 mm 0.00 in0.0 mm 0.03 in0.8 mm
06:20 PM 73.5°F23.1°C 48.9°F9.4°C 43% 3.0 mph 4.8 kmh 13.0 mph20.9 kmh 29.68 in1005.1 mb 0.00 in0.0 mm 0.00 in0.0 mm 0.03 in0.8 mm
06:25 PM 73.3°F22.9°C 48.7°F9.3°C 43% 8.0 mph W12.9 kmh W 10.0 mph16.1 kmh 29.68 in1005.1 mb 0.00 in0.0 mm 0.00 in0.0 mm 0.03 in0.8 mm
06:30 PM 73.1°F22.8°C 48.5°F9.2°C 43% 2.0 mph NW3.2 kmh NW 10.0 mph16.1 kmh 29.69 in1005.4 mb 0.00 in0.0 mm 0.00 in0.0 mm 0.03 in0.8 mm
06:35 PM 72.8°F22.7°C 48.3°F9.1°C 43% 4.0 mph NW6.4 kmh NW 10.0 mph16.1 kmh 29.69 in1005.4 mb 0.00 in0.0 mm 0.00 in0.0 mm 0.03 in0.8 mm
06:40 PM 72.2°F22.3°C 48.4°F9.1°C 44% 2.0 mph WNW3.2 kmh WNW 10.0 mph16.1 kmh 29.70 in1005.8 mb 0.00 in0.0 mm 0.00 in0.0 mm 0.03 in0.8 mm
06:45 PM 71.4°F21.9°C 48.3°F9.1°C 45% 4.0 mph NW6.4 kmh NW 10.0 mph16.1 kmh 29.70 in1005.8 mb 0.00 in0.0 mm 0.00 in0.0 mm 0.03 in0.8 mm
06:50 PM 70.7°F21.5°C 47.6°F8.7°C 45% 3.0 mph WNW4.8 kmh WNW 9.0 mph14.5 kmh 29.70 in1005.8 mb 0.00 in0.0 mm 0.00 in0.0 mm 0.03 in0.8 mm
06:55 PM 70.2°F21.2°C 47.8°F8.8°C 46% 4.0 mph WNW6.4 kmh WNW 9.0 mph14.5 kmh 29.70 in1005.8 mb 0.00 in0.0 mm 0.00 in0.0 mm 0.03 in0.8 mm
07:00 PM 69.7°F20.9°C 47.9°F8.8°C 47% 6.0 mph NW9.7 kmh NW 11.0 mph17.7 kmh 29.71 in1006.1 mb 0.00 in0.0 mm 0.00 in0.0 mm 0.03 in0.8 mm
07:05 PM 69.2°F20.7°C 48.1°F8.9°C 48% 2.0 mph WNW3.2 kmh WNW 11.0 mph17.7 kmh 29.71 in1006.1 mb 0.00 in0.0 mm 0.00 in0.0 mm 0.03 in0.8 mm
07:10 PM 68.8°F20.4°C 47.7°F8.7°C 48% Calm Calm 11.0 mph17.7 kmh 29.71 in1006.1 mb 0.00 in0.0 mm 0.00 in0.0 mm 0.03 in0.8 mm
07:15 PM 68.4°F20.2°C 47.3°F8.5°C 48% Calm Calm 7.0 mph11.3 kmh 29.71 in1006.1 mb 0.00 in0.0 mm 0.00 in0.0 mm 0.03 in0.8 mm
07:20 PM 68.0°F20.0°C 47.6°F8.7°C 49% 3.0 mph 4.8 kmh 10.0 mph16.1 kmh 29.71 in1006.1 mb 0.00 in0.0 mm 0.00 in0.0 mm 0.03 in0.8 mm
07:25 PM 67.7°F19.8°C 47.3°F8.5°C 49% 1.0 mph WSW1.6 kmh WSW 10.0 mph16.1 kmh 29.71 in1006.1 mb 0.00 in0.0 mm 0.00 in0.0 mm 0.03 in0.8 mm
07:30 PM 67.4°F19.7°C 47.0°F8.3°C 49% Calm Calm 1.0 mph1.6 kmh 29.71 in1006.1 mb 0.00 in0.0 mm 0.00 in0.0 mm 0.03 in0.8 mm
07:35 PM 67.2°F19.6°C 46.8°F8.2°C 49% Calm Calm 1.0 mph1.6 kmh 29.72 in1006.4 mb 0.00 in0.0 mm 0.00 in0.0 mm 0.03 in0.8 mm
07:40 PM 67.0°F19.4°C 47.2°F8.4°C 50% Calm Calm -- 29.72 in1006.4 mb 0.00 in0.0 mm 0.00 in0.0 mm 0.03 in0.8 mm
07:45 PM 66.8°F19.3°C 47.0°F8.3°C 50% Calm Calm -- 29.72 in1006.4 mb 0.00 in0.0 mm 0.00 in0.0 mm 0.03 in0.8 mm
07:50 PM 66.6°F19.2°C 46.8°F8.2°C 50% Calm Calm -- 29.72 in1006.4 mb 0.00 in0.0 mm 0.00 in0.0 mm 0.03 in0.8 mm
07:55 PM 66.4°F19.1°C 47.2°F8.4°C 51% Calm Calm -- 29.72 in1006.4 mb 0.00 in0.0 mm 0.00 in0.0 mm 0.03 in0.8 mm
08:00 PM 66.3°F19.1°C 47.1°F8.4°C 51% Calm Calm -- 29.72 in1006.4 mb 0.00 in0.0 mm 0.00 in0.0 mm 0.03 in0.8 mm
08:05 PM 66.1°F18.9°C 46.9°F8.3°C 51% Calm Calm -- 29.73 in1006.8 mb 0.00 in0.0 mm 0.00 in0.0 mm 0.03 in0.8 mm
08:10 PM 65.8°F18.8°C 47.2°F8.4°C 52% Calm Calm -- 29.73 in1006.8 mb 0.00 in0.0 mm 0.00 in0.0 mm 0.03 in0.8 mm
08:15 PM 65.6°F18.7°C 47.0°F8.3°C 52% Calm Calm -- 29.73 in1006.8 mb 0.00 in0.0 mm 0.00 in0.0 mm 0.03 in0.8 mm
08:20 PM 65.4°F18.6°C 46.8°F8.2°C 52% Calm Calm -- 29.73 in1006.8 mb 0.00 in0.0 mm 0.00 in0.0 mm 0.03 in0.8 mm
08:25 PM 65.1°F18.4°C 47.1°F8.4°C 53% Calm Calm -- 29.73 in1006.8 mb 0.00 in0.0 mm 0.00 in0.0 mm 0.03 in0.8 mm
08:30 PM 64.8°F18.2°C 47.3°F8.5°C 54% Calm Calm -- 29.73 in1006.8 mb 0.00 in0.0 mm 0.00 in0.0 mm 0.03 in0.8 mm
08:35 PM 64.5°F18.1°C 47.5°F8.6°C 55% Calm Calm -- 29.73 in1006.8 mb 0.00 in0.0 mm 0.00 in0.0 mm 0.03 in0.8 mm
08:40 PM 64.3°F17.9°C 47.4°F8.6°C 55% Calm Calm -- 29.73 in1006.8 mb 0.00 in0.0 mm 0.00 in0.0 mm 0.03 in0.8 mm
08:45 PM 64.0°F17.8°C 47.6°F8.7°C 56% Calm Calm -- 29.73 in1006.8 mb 0.00 in0.0 mm 0.00 in0.0 mm 0.03 in0.8 mm
08:50 PM 63.7°F17.6°C 47.3°F8.5°C 56% Calm Calm -- 29.73 in1006.8 mb 0.00 in0.0 mm 0.00 in0.0 mm 0.03 in0.8 mm
08:55 PM 63.6°F17.6°C 47.2°F8.4°C 56% Calm Calm -- 29.73 in1006.8 mb 0.00 in0.0 mm 0.00 in0.0 mm 0.03 in0.8 mm
09:00 PM 63.5°F17.5°C 47.6°F8.7°C 57% Calm Calm -- 29.73 in1006.8 mb 0.00 in0.0 mm 0.00 in0.0 mm 0.03 in0.8 mm
09:05 PM 63.4°F17.4°C 47.5°F8.6°C 57% Calm Calm -- 29.73 in1006.8 mb 0.00 in0.0 mm 0.00 in0.0 mm 0.03 in0.8 mm
09:10 PM 63.3°F17.4°C 47.4°F8.6°C 57% Calm Calm -- 29.73 in1006.8 mb 0.00 in0.0 mm 0.00 in0.0 mm 0.03 in0.8 mm
09:15 PM 63.2°F17.3°C 47.8°F8.8°C 58% Calm Calm -- 29.73 in1006.8 mb 0.00 in0.0 mm 0.00 in0.0 mm 0.03 in0.8 mm
09:20 PM 63.1°F17.3°C 48.2°F9.0°C 59% Calm Calm -- 29.73 in1006.8 mb 0.00 in0.0 mm 0.00 in0.0 mm 0.03 in0.8 mm
09:25 PM 62.8°F17.1°C 47.9°F8.8°C 59% Calm Calm -- 29.73 in1006.8 mb 0.00 in0.0 mm 0.00 in0.0 mm 0.03 in0.8 mm
09:30 PM 62.6°F17.0°C 47.7°F8.7°C 59% Calm Calm -- 29.73 in1006.8 mb 0.00 in0.0 mm 0.00 in0.0 mm 0.03 in0.8 mm
09:35 PM 62.5°F16.9°C 47.6°F8.7°C 59% Calm Calm -- 29.74 in1007.1 mb 0.00 in0.0 mm 0.00 in0.0 mm 0.03 in0.8 mm
09:40 PM 62.5°F16.9°C 47.6°F8.7°C 59% Calm Calm -- 29.73 in1006.8 mb 0.00 in0.0 mm 0.00 in0.0 mm 0.03 in0.8 mm
09:45 PM 62.4°F16.9°C 47.5°F8.6°C 59% Calm Calm -- 29.73 in1006.8 mb 0.00 in0.0 mm 0.00 in0.0 mm 0.03 in0.8 mm
09:50 PM 62.4°F16.9°C 48.4°F9.1°C 61% Calm Calm -- 29.73 in1006.8 mb 0.00 in0.0 mm 0.00 in0.0 mm 0.03 in0.8 mm
09:55 PM 62.3°F16.8°C 49.2°F9.6°C 63% Calm Calm -- 29.74 in1007.1 mb 0.00 in0.0 mm 0.00 in0.0 mm 0.03 in0.8 mm
10:00 PM 62.1°F16.7°C 49.1°F9.5°C 63% Calm Calm -- 29.74 in1007.1 mb 0.00 in0.0 mm 0.00 in0.0 mm 0.03 in0.8 mm
10:05 PM 61.9°F16.6°C 48.4°F9.1°C 62% Calm Calm -- 29.74 in1007.1 mb 0.00 in0.0 mm 0.00 in0.0 mm 0.03 in0.8 mm
10:10 PM 61.9°F16.6°C 48.4°F9.1°C 62% Calm Calm 2.0 mph3.2 kmh 29.74 in1007.1 mb 0.00 in0.0 mm 0.00 in0.0 mm 0.03 in0.8 mm
10:15 PM 61.9°F16.6°C 48.4°F9.1°C 62% Calm Calm -- 29.74 in1007.1 mb 0.00 in0.0 mm 0.00 in0.0 mm 0.03 in0.8 mm
10:20 PM 61.9°F16.6°C 48.0°F8.9°C 61% Calm Calm 1.0 mph1.6 kmh 29.74 in1007.1 mb 0.00 in0.0 mm 0.00 in0.0 mm 0.03 in0.8 mm
10:25 PM 62.1°F16.7°C 47.7°F8.7°C 60% Calm Calm -- 29.74 in1007.1 mb 0.00 in0.0 mm 0.00 in0.0 mm 0.03 in0.8 mm
10:30 PM 62.2°F16.8°C 47.8°F8.8°C 60% Calm Calm -- 29.74 in1007.1 mb 0.00 in0.0 mm 0.00 in0.0 mm 0.03 in0.8 mm
10:35 PM 62.3°F16.8°C 47.9°F8.8°C 60% Calm Calm 3.0 mph4.8 kmh 29.74 in1007.1 mb 0.00 in0.0 mm 0.00 in0.0 mm 0.03 in0.8 mm
10:40 PM 62.5°F16.9°C 47.1°F8.4°C 58% Calm Calm 10.0 mph16.1 kmh 29.74 in1007.1 mb 0.00 in0.0 mm 0.00 in0.0 mm 0.03 in0.8 mm
10:45 PM 62.6°F17.0°C 47.2°F8.4°C 58% 1.0 mph NE1.6 kmh NE 10.0 mph16.1 kmh 29.74 in1007.1 mb 0.00 in0.0 mm 0.00 in0.0 mm 0.03 in0.8 mm
10:50 PM 62.5°F16.9°C 46.7°F8.2°C 57% Calm Calm -- 29.74 in1007.1 mb 0.00 in0.0 mm 0.00 in0.0 mm 0.03 in0.8 mm
10:55 PM 62.4°F16.9°C 46.6°F8.1°C 57% 4.0 mph NE6.4 kmh NE 10.0 mph16.1 kmh 29.75 in1007.5 mb 0.00 in0.0 mm 0.00 in0.0 mm 0.03 in0.8 mm
11:00 PM 62.1°F16.7°C 45.8°F7.7°C 56% 8.0 mph NNE12.9 kmh NNE 10.0 mph16.1 kmh 29.75 in1007.5 mb 0.00 in0.0 mm 0.00 in0.0 mm 0.00 in0.0 mm
11:05 PM 61.2°F16.2°C 44.5°F6.9°C 55% 3.0 mph NE4.8 kmh NE 18.0 mph29.0 kmh 29.76 in1007.8 mb 0.00 in0.0 mm 0.00 in0.0 mm 0.00 in0.0 mm
11:10 PM 59.6°F15.3°C 43.5°F6.4°C 56% 5.0 mph ENE8.0 kmh ENE 18.0 mph29.0 kmh 29.77 in1008.1 mb 0.00 in0.0 mm 0.00 in0.0 mm 0.00 in0.0 mm
11:15 PM 57.7°F14.3°C 42.7°F5.9°C 58% 8.0 mph NE12.9 kmh NE 18.0 mph29.0 kmh 29.77 in1008.1 mb 0.00 in0.0 mm 0.00 in0.0 mm 0.00 in0.0 mm
11:20 PM 56.1°F13.4°C 42.1°F5.6°C 60% 10.0 mph NE16.1 kmh NE 18.0 mph29.0 kmh 29.78 in1008.5 mb 0.00 in0.0 mm 0.00 in0.0 mm 0.00 in0.0 mm
11:25 PM 54.4°F12.4°C 41.4°F5.2°C 62% 8.0 mph ENE12.9 kmh ENE 17.0 mph27.4 kmh 29.79 in1008.8 mb 0.00 in0.0 mm 0.00 in0.0 mm 0.00 in0.0 mm
11:30 PM 53.0°F11.7°C 40.9°F4.9°C 64% 10.0 mph E16.1 kmh E 17.0 mph27.4 kmh 29.79 in1008.8 mb 0.00 in0.0 mm 0.00 in0.0 mm 0.00 in0.0 mm
11:35 PM 51.8°F11.0°C 41.0°F5.0°C 67% 5.0 mph ENE8.0 kmh ENE 15.0 mph24.1 kmh 29.79 in1008.8 mb 0.00 in0.0 mm 0.00 in0.0 mm 0.00 in0.0 mm
11:40 PM 51.0°F10.6°C 40.6°F4.8°C 68% 8.0 mph ENE12.9 kmh ENE 15.0 mph24.1 kmh 29.80 in1009.1 mb 0.00 in0.0 mm 0.00 in0.0 mm 0.00 in0.0 mm
11:45 PM 50.2°F10.1°C 40.2°F4.6°C 69% 5.0 mph E8.0 kmh E 15.0 mph24.1 kmh 29.80 in1009.1 mb 0.00 in0.0 mm 0.00 in0.0 mm 0.00 in0.0 mm
11:50 PM 49.5°F9.7°C 40.0°F4.4°C 70% 7.0 mph ENE11.3 kmh ENE 15.0 mph24.1 kmh 29.79 in1008.8 mb 0.00 in0.0 mm 0.00 in0.0 mm 0.00 in0.0 mm
11:55 PM 48.7°F9.3°C 39.9°F4.4°C 72% 5.0 mph ESE8.0 kmh ESE 15.0 mph24.1 kmh 29.78 in1008.5 mb 0.00 in0.0 mm 0.00 in0.0 mm 0.00 in0.0 mm